Terminal Aerodrome Forecast
Issued by NWS Sterling, VA

Current Version | Previous Version | Text Only | Print | Product List | Glossary Off
Versions: 1 2 3 4 5 6 7 8 9 10 11 12 13 14 15 16 17 18

379
FTUS41 KLWX 031453 AAA
TAFMRB
TAF AMD
KMRB 031453Z 0315/0412 17009KT 5SM -RA BR OVC012 WS020/18050KT
     FM031700 19009KT 3SM -RA BR OVC020
     FM040000 23005KT P6SM OVC070
     FM040900 29006KT P6SM BKN090=

USA.gov is the U.S. government's official web portal to all federal, state and local government web resources and services.